ENBO

Bodø Airport

Bodø, Norway
METAR ENBO 190650Z 08021KT CAVOK M05/M12 Q0998 NOSIG
Observed Flight Rules
Jan-19 @ 06:50 UTC (29 minutes ago) Visual Flight Rules
Wind Visibility Clouds
80° at 21 knots 10,000+ meters
  • Clear skies
Temperatures Readings
Current -5°C / 23°F
Dewpoint -12°C / 10°F
Humidity 58%
Altimeter 29.47" Hg
Pressure 998 hPa
Elevation 13
METAR ENBO 190650Z 08021KT CAVOK M05/M12 Q0998 NOSIG
Observed Flight Rules
Jan-19 @ 06:50 UTC
(29 minutes ago)
VFR
Wind Visibility
80° at 21 knots 10,000+ meters
Clouds
  • Clear skies
Temperature Dewpoint
-5°C / 23°F -12°C / 10°F
Humidity Altimeter Pressure
58% 29.47" Hg 998 hPa